sensor_id;sensor_type;location;lat;lon;timestamp;pressure;altitude;pressure_sealevel;temperature
20289;BMP180;10303;51.960;8.372;2022-12-26T00:01:52;99812.00;;;14.50
20289;BMP180;10303;51.960;8.372;2022-12-26T00:04:18;99802.00;;;14.40
20289;BMP180;10303;51.960;8.372;2022-12-26T00:06:44;99810.00;;;14.50
20289;BMP180;10303;51.960;8.372;2022-12-26T00:09:11;99803.00;;;14.50
20289;BMP180;10303;51.960;8.372;2022-12-26T00:11:37;99820.00;;;14.50
20289;BMP180;10303;51.960;8.372;2022-12-26T00:14:14;99817.00;;;14.40
20289;BMP180;10303;51.960;8.372;2022-12-26T00:16:43;99817.00;;;14.40
20289;BMP180;10303;51.960;8.372;2022-12-26T00:19:10;99803.00;;;14.50
20289;BMP180;10303;51.960;8.372;2022-12-26T00:21:36;99804.00;;;14.40
20289;BMP180;10303;51.960;8.372;2022-12-26T00:24:03;99806.00;;;14.40
20289;BMP180;10303;51.960;8.372;2022-12-26T00:26:32;99807.00;;;14.40
20289;BMP180;10303;51.960;8.372;2022-12-26T00:28:58;99835.00;;;14.30
20289;BMP180;10303;51.960;8.372;2022-12-26T00:31:30;99836.00;;;14.30
20289;BMP180;10303;51.960;8.372;2022-12-26T00:33:58;99835.00;;;14.40
20289;BMP180;10303;51.960;8.372;2022-12-26T00:36:28;99840.00;;;14.40
20289;BMP180;10303;51.960;8.372;2022-12-26T00:38:56;99837.00;;;14.40
20289;BMP180;10303;51.960;8.372;2022-12-26T00:41:23;99841.00;;;14.40
20289;BMP180;10303;51.960;8.372;2022-12-26T00:43:49;99835.00;;;14.40
20289;BMP180;10303;51.960;8.372;2022-12-26T00:46:17;99845.00;;;14.40
20289;BMP180;10303;51.960;8.372;2022-12-26T00:48:43;99835.00;;;14.40
20289;BMP180;10303;51.960;8.372;2022-12-26T00:51:09;99838.00;;;14.40
20289;BMP180;10303;51.960;8.372;2022-12-26T00:53:36;99830.00;;;14.40
20289;BMP180;10303;51.960;8.372;2022-12-26T00:56:02;99825.00;;;14.40
20289;BMP180;10303;51.960;8.372;2022-12-26T00:58:28;99827.00;;;14.50
20289;BMP180;10303;51.960;8.372;2022-12-26T01:00:54;99841.00;;;14.50
20289;BMP180;10303;51.960;8.372;2022-12-26T01:03:21;99838.00;;;14.50
20289;BMP180;10303;51.960;8.372;2022-12-26T01:05:50;99826.00;;;14.50
20289;BMP180;10303;51.960;8.372;2022-12-26T01:08:17;99836.00;;;14.50
20289;BMP180;10303;51.960;8.372;2022-12-26T01:10:45;99838.00;;;14.50
20289;BMP180;10303;51.960;8.372;2022-12-26T01:13:13;99842.00;;;14.50
20289;BMP180;10303;51.960;8.372;2022-12-26T01:15:39;99854.00;;;14.50
20289;BMP180;10303;51.960;8.372;2022-12-26T01:18:05;99837.00;;;14.50
20289;BMP180;10303;51.960;8.372;2022-12-26T01:20:31;99840.00;;;14.50
20289;BMP180;10303;51.960;8.372;2022-12-26T01:22:57;99847.00;;;14.50
20289;BMP180;10303;51.960;8.372;2022-12-26T01:25:24;99857.00;;;14.50
20289;BMP180;10303;51.960;8.372;2022-12-26T01:27:50;99849.00;;;14.50
20289;BMP180;10303;51.960;8.372;2022-12-26T01:30:17;99864.00;;;14.50
20289;BMP180;10303;51.960;8.372;2022-12-26T01:32:43;99871.00;;;14.50
20289;BMP180;10303;51.960;8.372;2022-12-26T01:35:09;99853.00;;;14.50
20289;BMP180;10303;51.960;8.372;2022-12-26T01:37:35;99861.00;;;14.50
20289;BMP180;10303;51.960;8.372;2022-12-26T01:40:01;99866.00;;;14.60
20289;BMP180;10303;51.960;8.372;2022-12-26T01:42:39;99873.00;;;14.50
20289;BMP180;10303;51.960;8.372;2022-12-26T01:45:28;99889.00;;;14.50
20289;BMP180;10303;51.960;8.372;2022-12-26T01:48:01;99875.00;;;14.50
20289;BMP180;10303;51.960;8.372;2022-12-26T01:55:59;99889.00;;;14.50
20289;BMP180;10303;51.960;8.372;2022-12-26T01:58:36;99893.00;;;14.50
20289;BMP180;10303;51.960;8.372;2022-12-26T02:01:06;99887.00;;;14.50
20289;BMP180;10303;51.960;8.372;2022-12-26T02:03:36;99893.00;;;14.50
20289;BMP180;10303;51.960;8.372;2022-12-26T02:06:22;99884.00;;;14.50
20289;BMP180;10303;51.960;8.372;2022-12-26T02:08:48;99895.00;;;14.50
20289;BMP180;10303;51.960;8.372;2022-12-26T02:11:34;99878.00;;;14.50
20289;BMP180;10303;51.960;8.372;2022-12-26T02:14:04;99875.00;;;14.50
20289;BMP180;10303;51.960;8.372;2022-12-26T02:16:33;99872.00;;;14.50
20289;BMP180;10303;51.960;8.372;2022-12-26T02:19:00;99870.00;;;14.60
20289;BMP180;10303;51.960;8.372;2022-12-26T02:22:34;99874.00;;;14.50
20289;BMP180;10303;51.960;8.372;2022-12-26T02:34:06;99877.00;;;14.50
20289;BMP180;10303;51.960;8.372;2022-12-26T02:40:07;99891.00;;;14.50
20289;BMP180;10303;51.960;8.372;2022-12-26T02:46:06;99899.00;;;14.50
20289;BMP180;10303;51.960;8.372;2022-12-26T02:49:18;99893.00;;;14.40
20289;BMP180;10303;51.960;8.372;2022-12-26T02:52:15;99892.00;;;14.40
20289;BMP180;10303;51.960;8.372;2022-12-26T02:55:12;99897.00;;;14.40
20289;BMP180;10303;51.960;8.372;2022-12-26T02:58:06;99881.00;;;14.40
20289;BMP180;10303;51.960;8.372;2022-12-26T03:01:03;99893.00;;;14.40
20289;BMP180;10303;51.960;8.372;2022-12-26T03:03:51;99890.00;;;14.40
20289;BMP180;10303;51.960;8.372;2022-12-26T03:06:40;99889.00;;;14.40
20289;BMP180;10303;51.960;8.372;2022-12-26T03:09:31;99895.00;;;14.40
20289;BMP180;10303;51.960;8.372;2022-12-26T03:15:06;99900.00;;;14.40
20289;BMP180;10303;51.960;8.372;2022-12-26T03:17:59;99897.00;;;14.40
20289;BMP180;10303;51.960;8.372;2022-12-26T03:20:32;99881.00;;;14.40
20289;BMP180;10303;51.960;8.372;2022-12-26T03:23:09;99866.00;;;14.40
20289;BMP180;10303;51.960;8.372;2022-12-26T03:25:53;99879.00;;;14.30
20289;BMP180;10303;51.960;8.372;2022-12-26T03:28:40;99895.00;;;14.40
20289;BMP180;10303;51.960;8.372;2022-12-26T03:31:11;99889.00;;;14.30
20289;BMP180;10303;51.960;8.372;2022-12-26T03:33:41;99895.00;;;14.30
20289;BMP180;10303;51.960;8.372;2022-12-26T03:48:58;99902.00;;;14.20
20289;BMP180;10303;51.960;8.372;2022-12-26T03:52:27;99895.00;;;14.10
20289;BMP180;10303;51.960;8.372;2022-12-26T04:01:13;99902.00;;;14.10
20289;BMP180;10303;51.960;8.372;2022-12-26T04:04:02;99889.00;;;14.10
20289;BMP180;10303;51.960;8.372;2022-12-26T04:06:57;99900.00;;;14.10
20289;BMP180;10303;51.960;8.372;2022-12-26T04:09:54;99897.00;;;14.00
20289;BMP180;10303;51.960;8.372;2022-12-26T04:12:42;99902.00;;;14.00
20289;BMP180;10303;51.960;8.372;2022-12-26T04:15:50;99914.00;;;13.90
20289;BMP180;10303;51.960;8.372;2022-12-26T04:18:49;99917.00;;;13.90
20289;BMP180;10303;51.960;8.372;2022-12-26T04:21:47;99912.00;;;13.90
20289;BMP180;10303;51.960;8.372;2022-12-26T04:24:45;99908.00;;;13.90
20289;BMP180;10303;51.960;8.372;2022-12-26T04:27:33;99915.00;;;13.90
20289;BMP180;10303;51.960;8.372;2022-12-26T04:30:18;99903.00;;;13.90
20289;BMP180;10303;51.960;8.372;2022-12-26T04:33:41;99898.00;;;13.80
20289;BMP180;10303;51.960;8.372;2022-12-26T04:36:36;99897.00;;;13.80
20289;BMP180;10303;51.960;8.372;2022-12-26T04:39:28;99902.00;;;13.80
20289;BMP180;10303;51.960;8.372;2022-12-26T04:42:16;99916.00;;;13.80
20289;BMP180;10303;51.960;8.372;2022-12-26T04:45:04;99914.00;;;13.80
20289;BMP180;10303;51.960;8.372;2022-12-26T04:47:32;99919.00;;;13.80
20289;BMP180;10303;51.960;8.372;2022-12-26T04:50:03;99920.00;;;13.80
20289;BMP180;10303;51.960;8.372;2022-12-26T04:52:41;99916.00;;;13.70
20289;BMP180;10303;51.960;8.372;2022-12-26T04:55:26;99929.00;;;13.70
20289;BMP180;10303;51.960;8.372;2022-12-26T04:57:53;99934.00;;;13.60
20289;BMP180;10303;51.960;8.372;2022-12-26T05:00:20;99936.00;;;13.60
20289;BMP180;10303;51.960;8.372;2022-12-26T05:02:46;99932.00;;;13.60
20289;BMP180;10303;51.960;8.372;2022-12-26T05:05:38;99944.00;;;13.60
20289;BMP180;10303;51.960;8.372;2022-12-26T05:08:33;99942.00;;;13.50
20289;BMP180;10303;51.960;8.372;2022-12-26T05:11:18;99943.00;;;13.50
20289;BMP180;10303;51.960;8.372;2022-12-26T05:13:44;99955.00;;;13.50
20289;BMP180;10303;51.960;8.372;2022-12-26T05:16:10;99952.00;;;13.60
20289;BMP180;10303;51.960;8.372;2022-12-26T05:18:54;99959.00;;;13.60
20289;BMP180;10303;51.960;8.372;2022-12-26T05:21:39;99947.00;;;13.50
20289;BMP180;10303;51.960;8.372;2022-12-26T05:24:32;99969.00;;;13.50
20289;BMP180;10303;51.960;8.372;2022-12-26T05:27:19;99968.00;;;13.50
20289;BMP180;10303;51.960;8.372;2022-12-26T05:30:05;99968.00;;;13.50
20289;BMP180;10303;51.960;8.372;2022-12-26T05:32:31;99968.00;;;13.50
20289;BMP180;10303;51.960;8.372;2022-12-26T05:35:15;99958.00;;;13.50
20289;BMP180;10303;51.960;8.372;2022-12-26T05:37:41;99966.00;;;13.50
20289;BMP180;10303;51.960;8.372;2022-12-26T05:40:08;99966.00;;;13.60
20289;BMP180;10303;51.960;8.372;2022-12-26T05:42:34;99960.00;;;13.50
20289;BMP180;10303;51.960;8.372;2022-12-26T05:45:00;99974.00;;;13.50
20289;BMP180;10303;51.960;8.372;2022-12-26T05:47:26;99968.00;;;13.50
20289;BMP180;10303;51.960;8.372;2022-12-26T05:49:51;99968.00;;;13.50
20289;BMP180;10303;51.960;8.372;2022-12-26T05:52:18;99959.00;;;13.50
20289;BMP180;10303;51.960;8.372;2022-12-26T05:54:43;99954.00;;;13.50
20289;BMP180;10303;51.960;8.372;2022-12-26T05:57:09;99960.00;;;13.40
20289;BMP180;10303;51.960;8.372;2022-12-26T05:59:35;99975.00;;;13.40
20289;BMP180;10303;51.960;8.372;2022-12-26T06:02:01;99977.00;;;13.40
20289;BMP180;10303;51.960;8.372;2022-12-26T06:04:27;99986.00;;;13.40
20289;BMP180;10303;51.960;8.372;2022-12-26T06:06:55;99967.00;;;13.30
20289;BMP180;10303;51.960;8.372;2022-12-26T06:09:22;99977.00;;;13.30
20289;BMP180;10303;51.960;8.372;2022-12-26T06:11:49;99973.00;;;13.30
20289;BMP180;10303;51.960;8.372;2022-12-26T06:14:15;99986.00;;;13.30
20289;BMP180;10303;51.960;8.372;2022-12-26T06:16:41;99976.00;;;13.40
20289;BMP180;10303;51.960;8.372;2022-12-26T06:19:07;99980.00;;;13.40
20289;BMP180;10303;51.960;8.372;2022-12-26T06:21:33;99982.00;;;13.40
20289;BMP180;10303;51.960;8.372;2022-12-26T06:23:59;99973.00;;;13.40
20289;BMP180;10303;51.960;8.372;2022-12-26T06:26:25;99982.00;;;13.40
20289;BMP180;10303;51.960;8.372;2022-12-26T06:28:51;99982.00;;;13.40
20289;BMP180;10303;51.960;8.372;2022-12-26T06:31:22;99982.00;;;13.40
20289;BMP180;10303;51.960;8.372;2022-12-26T06:33:53;99973.00;;;13.40
20289;BMP180;10303;51.960;8.372;2022-12-26T06:36:22;99963.00;;;13.40
20289;BMP180;10303;51.960;8.372;2022-12-26T06:38:49;99970.00;;;13.50
20289;BMP180;10303;51.960;8.372;2022-12-26T06:41:17;99974.00;;;13.50
20289;BMP180;10303;51.960;8.372;2022-12-26T06:43:44;99968.00;;;13.50
20289;BMP180;10303;51.960;8.372;2022-12-26T06:46:14;99969.00;;;13.50
20289;BMP180;10303;51.960;8.372;2022-12-26T06:48:40;99964.00;;;13.50
20289;BMP180;10303;51.960;8.372;2022-12-26T06:51:14;99968.00;;;13.50
20289;BMP180;10303;51.960;8.372;2022-12-26T06:53:41;99967.00;;;13.50
20289;BMP180;10303;51.960;8.372;2022-12-26T06:56:16;99965.00;;;13.50
20289;BMP180;10303;51.960;8.372;2022-12-26T06:58:43;99956.00;;;13.50
20289;BMP180;10303;51.960;8.372;2022-12-26T07:01:13;99956.00;;;13.50
20289;BMP180;10303;51.960;8.372;2022-12-26T07:03:40;99963.00;;;13.50
20289;BMP180;10303;51.960;8.372;2022-12-26T07:06:11;99967.00;;;13.50
20289;BMP180;10303;51.960;8.372;2022-12-26T07:08:38;99969.00;;;13.50
20289;BMP180;10303;51.960;8.372;2022-12-26T07:11:04;99979.00;;;13.60
20289;BMP180;10303;51.960;8.372;2022-12-26T07:13:30;99989.00;;;13.60
20289;BMP180;10303;51.960;8.372;2022-12-26T07:15:59;99999.00;;;13.50
20289;BMP180;10303;51.960;8.372;2022-12-26T07:18:25;99991.00;;;13.60
20289;BMP180;10303;51.960;8.372;2022-12-26T07:20:51;99994.00;;;13.60
20289;BMP180;10303;51.960;8.372;2022-12-26T07:23:17;100010.00;;;13.60
20289;BMP180;10303;51.960;8.372;2022-12-26T07:25:46;100017.00;;;13.50
20289;BMP180;10303;51.960;8.372;2022-12-26T07:28:14;100018.00;;;13.50
20289;BMP180;10303;51.960;8.372;2022-12-26T07:30:48;100013.00;;;13.50
20289;BMP180;10303;51.960;8.372;2022-12-26T07:33:15;100020.00;;;13.50
20289;BMP180;10303;51.960;8.372;2022-12-26T07:35:42;100018.00;;;13.50
20289;BMP180;10303;51.960;8.372;2022-12-26T07:38:08;100023.00;;;13.50
20289;BMP180;10303;51.960;8.372;2022-12-26T07:40:34;100015.00;;;13.50
20289;BMP180;10303;51.960;8.372;2022-12-26T07:43:00;100019.00;;;13.50
20289;BMP180;10303;51.960;8.372;2022-12-26T07:45:26;100023.00;;;13.50
20289;BMP180;10303;51.960;8.372;2022-12-26T07:47:56;100026.00;;;13.50
20289;BMP180;10303;51.960;8.372;2022-12-26T07:50:25;100033.00;;;13.50
20289;BMP180;10303;51.960;8.372;2022-12-26T07:52:52;100036.00;;;13.50
20289;BMP180;10303;51.960;8.372;2022-12-26T07:55:19;100032.00;;;13.50
20289;BMP180;10303;51.960;8.372;2022-12-26T07:57:52;100026.00;;;13.50
20289;BMP180;10303;51.960;8.372;2022-12-26T08:00:19;100024.00;;;13.50
20289;BMP180;10303;51.960;8.372;2022-12-26T08:02:50;100027.00;;;13.50
20289;BMP180;10303;51.960;8.372;2022-12-26T08:05:16;100029.00;;;13.50
20289;BMP180;10303;51.960;8.372;2022-12-26T08:07:45;100037.00;;;13.50
20289;BMP180;10303;51.960;8.372;2022-12-26T08:10:11;100036.00;;;13.50
20289;BMP180;10303;51.960;8.372;2022-12-26T08:12:37;100038.00;;;13.50
20289;BMP180;10303;51.960;8.372;2022-12-26T08:15:04;100044.00;;;13.50
20289;BMP180;10303;51.960;8.372;2022-12-26T08:17:29;100050.00;;;13.50
20289;BMP180;10303;51.960;8.372;2022-12-26T08:19:58;100037.00;;;13.50
20289;BMP180;10303;51.960;8.372;2022-12-26T08:22:24;100036.00;;;13.50
20289;BMP180;10303;51.960;8.372;2022-12-26T08:24:50;100048.00;;;13.50
20289;BMP180;10303;51.960;8.372;2022-12-26T08:27:16;100037.00;;;13.50
20289;BMP180;10303;51.960;8.372;2022-12-26T08:29:42;100033.00;;;13.50
20289;BMP180;10303;51.960;8.372;2022-12-26T08:32:08;100031.00;;;13.50
20289;BMP180;10303;51.960;8.372;2022-12-26T08:34:35;100037.00;;;13.60
20289;BMP180;10303;51.960;8.372;2022-12-26T08:37:01;100040.00;;;13.60
20289;BMP180;10303;51.960;8.372;2022-12-26T08:39:28;100043.00;;;13.60
20289;BMP180;10303;51.960;8.372;2022-12-26T08:41:54;100048.00;;;13.60
20289;BMP180;10303;51.960;8.372;2022-12-26T08:44:20;100051.00;;;13.60
20289;BMP180;10303;51.960;8.372;2022-12-26T08:46:45;100057.00;;;13.60
20289;BMP180;10303;51.960;8.372;2022-12-26T08:49:11;100061.00;;;13.60
20289;BMP180;10303;51.960;8.372;2022-12-26T08:51:38;100057.00;;;13.60
20289;BMP180;10303;51.960;8.372;2022-12-26T08:54:04;100058.00;;;13.60
20289;BMP180;10303;51.960;8.372;2022-12-26T08:56:30;100055.00;;;13.60
20289;BMP180;10303;51.960;8.372;2022-12-26T08:58:56;100054.00;;;13.60
20289;BMP180;10303;51.960;8.372;2022-12-26T09:01:26;100066.00;;;13.50
20289;BMP180;10303;51.960;8.372;2022-12-26T09:03:55;100068.00;;;13.60
20289;BMP180;10303;51.960;8.372;2022-12-26T09:06:22;100065.00;;;13.50
20289;BMP180;10303;51.960;8.372;2022-12-26T09:08:48;100062.00;;;13.50
20289;BMP180;10303;51.960;8.372;2022-12-26T09:11:19;100063.00;;;13.50
20289;BMP180;10303;51.960;8.372;2022-12-26T09:13:46;100070.00;;;13.50
20289;BMP180;10303;51.960;8.372;2022-12-26T09:18:39;100064.00;;;13.50
20289;BMP180;10303;51.960;8.372;2022-12-26T09:21:08;100079.00;;;13.50
20289;BMP180;10303;51.960;8.372;2022-12-26T09:23:37;100074.00;;;13.50
20289;BMP180;10303;51.960;8.372;2022-12-26T09:28:36;100064.00;;;13.60
20289;BMP180;10303;51.960;8.372;2022-12-26T09:31:09;100064.00;;;13.60
20289;BMP180;10303;51.960;8.372;2022-12-26T09:33:36;100062.00;;;13.60
20289;BMP180;10303;51.960;8.372;2022-12-26T09:36:15;100076.00;;;13.60
20289;BMP180;10303;51.960;8.372;2022-12-26T09:38:43;100077.00;;;13.70
20289;BMP180;10303;51.960;8.372;2022-12-26T09:47:34;100080.00;;;13.70
20289;BMP180;10303;51.960;8.372;2022-12-26T09:50:13;100079.00;;;13.70
20289;BMP180;10303;51.960;8.372;2022-12-26T09:52:52;100068.00;;;13.80
20289;BMP180;10303;51.960;8.372;2022-12-26T09:55:48;100069.00;;;13.80
20289;BMP180;10303;51.960;8.372;2022-12-26T09:58:33;100061.00;;;13.90
20289;BMP180;10303;51.960;8.372;2022-12-26T10:01:10;100060.00;;;14.10
20289;BMP180;10303;51.960;8.372;2022-12-26T10:03:58;100074.00;;;14.50
20289;BMP180;10303;51.960;8.372;2022-12-26T10:06:34;100065.00;;;14.70
20289;BMP180;10303;51.960;8.372;2022-12-26T10:15:30;100048.00;;;15.10
20289;BMP180;10303;51.960;8.372;2022-12-26T10:21:34;100067.00;;;15.00
20289;BMP180;10303;51.960;8.372;2022-12-26T10:24:11;100067.00;;;15.10
20289;BMP180;10303;51.960;8.372;2022-12-26T10:26:48;100067.00;;;15.10
20289;BMP180;10303;51.960;8.372;2022-12-26T10:29:39;100080.00;;;15.00
20289;BMP180;10303;51.960;8.372;2022-12-26T10:32:39;100078.00;;;14.90
20289;BMP180;10303;51.960;8.372;2022-12-26T10:35:34;100084.00;;;14.80
20289;BMP180;10303;51.960;8.372;2022-12-26T10:41:05;100091.00;;;14.60
20289;BMP180;10303;51.960;8.372;2022-12-26T10:43:37;100092.00;;;14.60
20289;BMP180;10303;51.960;8.372;2022-12-26T10:49:11;100076.00;;;14.50
20289;BMP180;10303;51.960;8.372;2022-12-26T10:51:38;100080.00;;;14.60
20289;BMP180;10303;51.960;8.372;2022-12-26T10:54:16;100083.00;;;14.50
20289;BMP180;10303;51.960;8.372;2022-12-26T10:56:49;100094.00;;;14.50
20289;BMP180;10303;51.960;8.372;2022-12-26T10:59:23;100084.00;;;14.50
20289;BMP180;10303;51.960;8.372;2022-12-26T11:01:51;100093.00;;;14.50
20289;BMP180;10303;51.960;8.372;2022-12-26T11:04:23;100082.00;;;14.50
20289;BMP180;10303;51.960;8.372;2022-12-26T11:06:52;100081.00;;;14.50
20289;BMP180;10303;51.960;8.372;2022-12-26T11:09:38;100088.00;;;14.40
20289;BMP180;10303;51.960;8.372;2022-12-26T11:12:38;100089.00;;;14.50
20289;BMP180;10303;51.960;8.372;2022-12-26T11:15:30;100076.00;;;14.50
20289;BMP180;10303;51.960;8.372;2022-12-26T11:18:08;100086.00;;;14.50
20289;BMP180;10303;51.960;8.372;2022-12-26T11:20:37;100100.00;;;14.50
20289;BMP180;10303;51.960;8.372;2022-12-26T11:23:27;100089.00;;;14.40
20289;BMP180;10303;51.960;8.372;2022-12-26T11:26:00;100083.00;;;14.40
20289;BMP180;10303;51.960;8.372;2022-12-26T11:28:32;100103.00;;;14.40
20289;BMP180;10303;51.960;8.372;2022-12-26T11:31:05;100090.00;;;14.30
20289;BMP180;10303;51.960;8.372;2022-12-26T11:33:44;100095.00;;;14.40
20289;BMP180;10303;51.960;8.372;2022-12-26T11:36:20;100087.00;;;14.30
20289;BMP180;10303;51.960;8.372;2022-12-26T11:38:48;100080.00;;;14.40
20289;BMP180;10303;51.960;8.372;2022-12-26T11:44:24;100061.00;;;14.30
20289;BMP180;10303;51.960;8.372;2022-12-26T11:49:39;100078.00;;;14.30
20289;BMP180;10303;51.960;8.372;2022-12-26T11:53:20;100075.00;;;14.20
20289;BMP180;10303;51.960;8.372;2022-12-26T11:55:27;100065.00;;;14.30
20289;BMP180;10303;51.960;8.372;2022-12-26T11:58:14;100070.00;;;14.30
20289;BMP180;10303;51.960;8.372;2022-12-26T12:01:08;100062.00;;;14.30
20289;BMP180;10303;51.960;8.372;2022-12-26T12:03:41;100076.00;;;14.20
20289;BMP180;10303;51.960;8.372;2022-12-26T12:09:26;100069.00;;;14.20
20289;BMP180;10303;51.960;8.372;2022-12-26T12:12:21;100059.00;;;14.20
20289;BMP180;10303;51.960;8.372;2022-12-26T12:15:39;100058.00;;;14.10
20289;BMP180;10303;51.960;8.372;2022-12-26T12:18:45;100073.00;;;14.10
20289;BMP180;10303;51.960;8.372;2022-12-26T12:21:42;100057.00;;;14.00
20289;BMP180;10303;51.960;8.372;2022-12-26T12:27:30;100054.00;;;14.00
20289;BMP180;10303;51.960;8.372;2022-12-26T12:30:23;100045.00;;;14.30
20289;BMP180;10303;51.960;8.372;2022-12-26T12:55:27;100052.00;;;14.20
20289;BMP180;10303;51.960;8.372;2022-12-26T12:58:18;100048.00;;;14.20
20289;BMP180;10303;51.960;8.372;2022-12-26T13:00:54;100047.00;;;14.20
20289;BMP180;10303;51.960;8.372;2022-12-26T13:09:23;100051.00;;;14.20
20289;BMP180;10303;51.960;8.372;2022-12-26T13:12:18;100026.00;;;14.20
20289;BMP180;10303;51.960;8.372;2022-12-26T13:15:05;100057.00;;;14.10
20289;BMP180;10303;51.960;8.372;2022-12-26T13:17:47;100074.00;;;14.00
20289;BMP180;10303;51.960;8.372;2022-12-26T13:20:31;100084.00;;;13.10
20289;BMP180;10303;51.960;8.372;2022-12-26T13:23:51;100095.00;;;12.70
20289;BMP180;10303;51.960;8.372;2022-12-26T13:26:28;100101.00;;;11.90
20289;BMP180;10303;51.960;8.372;2022-12-26T13:31:38;100107.00;;;11.80
20289;BMP180;10303;51.960;8.372;2022-12-26T13:34:13;100105.00;;;11.70
20289;BMP180;10303;51.960;8.372;2022-12-26T13:36:50;100105.00;;;11.70
20289;BMP180;10303;51.960;8.372;2022-12-26T13:44:42;100125.00;;;11.70
20289;BMP180;10303;51.960;8.372;2022-12-26T13:47:35;100128.00;;;11.70
20289;BMP180;10303;51.960;8.372;2022-12-26T13:55:58;100152.00;;;11.40
20289;BMP180;10303;51.960;8.372;2022-12-26T13:58:47;100158.00;;;11.30
20289;BMP180;10303;51.960;8.372;2022-12-26T14:10:40;100179.00;;;11.10
20289;BMP180;10303;51.960;8.372;2022-12-26T14:13:47;100193.00;;;11.00
20289;BMP180;10303;51.960;8.372;2022-12-26T14:22:46;100214.00;;;10.90
20289;BMP180;10303;51.960;8.372;2022-12-26T14:37:33;100245.00;;;10.30
20289;BMP180;10303;51.960;8.372;2022-12-26T14:40:27;100246.00;;;10.20
20289;BMP180;10303;51.960;8.372;2022-12-26T14:43:27;100246.00;;;10.10
20289;BMP180;10303;51.960;8.372;2022-12-26T14:45:54;100256.00;;;10.10
20289;BMP180;10303;51.960;8.372;2022-12-26T14:56:44;100271.00;;;9.80
20289;BMP180;10303;51.960;8.372;2022-12-26T14:59:27;100263.00;;;9.70
20289;BMP180;10303;51.960;8.372;2022-12-26T15:11:12;100269.00;;;9.60
20289;BMP180;10303;51.960;8.372;2022-12-26T15:17:32;100276.00;;;9.70
20289;BMP180;10303;51.960;8.372;2022-12-26T15:35:33;100315.00;;;9.80
20289;BMP180;10303;51.960;8.372;2022-12-26T15:38:45;100326.00;;;9.90
20289;BMP180;10303;51.960;8.372;2022-12-26T15:44:40;100324.00;;;10.00
20289;BMP180;10303;51.960;8.372;2022-12-26T16:01:38;100354.00;;;9.90
20289;BMP180;10303;51.960;8.372;2022-12-26T16:04:22;100364.00;;;9.90
20289;BMP180;10303;51.960;8.372;2022-12-26T16:07:14;100369.00;;;9.90
20289;BMP180;10303;51.960;8.372;2022-12-26T16:09:55;100372.00;;;9.90
20289;BMP180;10303;51.960;8.372;2022-12-26T16:14:48;100372.00;;;9.90
20289;BMP180;10303;51.960;8.372;2022-12-26T16:17:19;100364.00;;;9.90
20289;BMP180;10303;51.960;8.372;2022-12-26T16:19:50;100371.00;;;9.90
20289;BMP180;10303;51.960;8.372;2022-12-26T16:22:37;100371.00;;;9.80
20289;BMP180;10303;51.960;8.372;2022-12-26T16:25:23;100379.00;;;9.70
20289;BMP180;10303;51.960;8.372;2022-12-26T16:27:54;100375.00;;;9.70
20289;BMP180;10303;51.960;8.372;2022-12-26T16:30:25;100382.00;;;9.60
20289;BMP180;10303;51.960;8.372;2022-12-26T16:32:53;100383.00;;;9.60
20289;BMP180;10303;51.960;8.372;2022-12-26T16:35:31;100393.00;;;9.60
20289;BMP180;10303;51.960;8.372;2022-12-26T16:38:00;100400.00;;;9.50
20289;BMP180;10303;51.960;8.372;2022-12-26T16:40:43;100399.00;;;9.50
20289;BMP180;10303;51.960;8.372;2022-12-26T16:45:39;100403.00;;;9.50
20289;BMP180;10303;51.960;8.372;2022-12-26T16:48:08;100402.00;;;9.50
20289;BMP180;10303;51.960;8.372;2022-12-26T16:53:20;100417.00;;;9.50
20289;BMP180;10303;51.960;8.372;2022-12-26T16:56:32;100414.00;;;9.50
20289;BMP180;10303;51.960;8.372;2022-12-26T16:59:22;100411.00;;;9.50
20289;BMP180;10303;51.960;8.372;2022-12-26T17:01:53;100412.00;;;9.60
20289;BMP180;10303;51.960;8.372;2022-12-26T17:04:24;100408.00;;;9.60
20289;BMP180;10303;51.960;8.372;2022-12-26T17:07:02;100417.00;;;9.70
20289;BMP180;10303;51.960;8.372;2022-12-26T17:09:50;100420.00;;;9.80
20289;BMP180;10303;51.960;8.372;2022-12-26T17:12:31;100427.00;;;9.80
20289;BMP180;10303;51.960;8.372;2022-12-26T17:15:00;100436.00;;;9.80
20289;BMP180;10303;51.960;8.372;2022-12-26T17:17:35;100440.00;;;9.80
20289;BMP180;10303;51.960;8.372;2022-12-26T17:22:58;100444.00;;;9.90
20289;BMP180;10303;51.960;8.372;2022-12-26T17:25:32;100449.00;;;10.00
20289;BMP180;10303;51.960;8.372;2022-12-26T17:30:42;100459.00;;;10.00
20289;BMP180;10303;51.960;8.372;2022-12-26T17:33:23;100457.00;;;9.90
20289;BMP180;10303;51.960;8.372;2022-12-26T17:35:56;100460.00;;;9.80
20289;BMP180;10303;51.960;8.372;2022-12-26T17:38:26;100460.00;;;9.70
20289;BMP180;10303;51.960;8.372;2022-12-26T17:40:59;100468.00;;;9.60
20289;BMP180;10303;51.960;8.372;2022-12-26T17:43:33;100454.00;;;9.30
20289;BMP180;10303;51.960;8.372;2022-12-26T17:46:02;100469.00;;;9.10
20289;BMP180;10303;51.960;8.372;2022-12-26T17:48:28;100470.00;;;9.20
20289;BMP180;10303;51.960;8.372;2022-12-26T17:51:04;100473.00;;;9.20
20289;BMP180;10303;51.960;8.372;2022-12-26T17:53:40;100483.00;;;9.20
20289;BMP180;10303;51.960;8.372;2022-12-26T17:56:19;100477.00;;;9.10
20289;BMP180;10303;51.960;8.372;2022-12-26T17:58:48;100471.00;;;9.20
20289;BMP180;10303;51.960;8.372;2022-12-26T18:01:14;100486.00;;;9.10
20289;BMP180;10303;51.960;8.372;2022-12-26T18:03:41;100483.00;;;9.00
20289;BMP180;10303;51.960;8.372;2022-12-26T18:06:13;100492.00;;;8.70
20289;BMP180;10303;51.960;8.372;2022-12-26T18:08:41;100494.00;;;8.60
20289;BMP180;10303;51.960;8.372;2022-12-26T18:11:11;100505.00;;;8.60
20289;BMP180;10303;51.960;8.372;2022-12-26T18:13:39;100497.00;;;8.70
20289;BMP180;10303;51.960;8.372;2022-12-26T18:16:05;100506.00;;;8.70
20289;BMP180;10303;51.960;8.372;2022-12-26T18:18:42;100515.00;;;8.70
20289;BMP180;10303;51.960;8.372;2022-12-26T18:21:11;100525.00;;;8.70
20289;BMP180;10303;51.960;8.372;2022-12-26T18:23:38;100519.00;;;8.70
20289;BMP180;10303;51.960;8.372;2022-12-26T18:26:27;100526.00;;;8.40
20289;BMP180;10303;51.960;8.372;2022-12-26T18:28:54;100536.00;;;8.40
20289;BMP180;10303;51.960;8.372;2022-12-26T18:31:20;100537.00;;;8.30